Denhawken, Texas
Current Conditions -  °F | °C
As of 12:58 AM on Friday 31 Oct 2014 (Local Time) from KRND Reporting Station
Clear Clear  
Wind Chill: 66°   Ceiling: Unl
Heat Index: 66°   Visibility: 10mi
Dew Point: 61°   Wind: 1mph
Humidity: 83%   Direction: 60°ENE
Pressure: 30.1"   Gusts: NA
Location:  29.2327°N, 97.8937°W
Report Text: KRND 310558Z AUTO 06001KT 10SM CLR 19/16 A3010 RMK AO2 SLP187 T01910161 10250 20190 402900168 50003
Loading
Personal Weather Stations






























Interactive Weather Map
Tropical Storm Tracking
New forecast layout! Learn more

10-Day Weather Forecast

Advertisements
Track Severe Weather on mobile